createdAt,value
2023-03-06T00:00:56.176Z,25.85
2023-03-06T00:03:28.351Z,26.30
2023-03-06T00:05:59.957Z,21.92
2023-03-06T00:08:33.101Z,24.23
2023-03-06T00:11:03.561Z,22.90
2023-03-06T00:13:35.299Z,23.40
2023-03-06T00:16:07.215Z,26.08
2023-03-06T00:18:38.083Z,22.73
2023-03-06T00:21:10.904Z,21.58
2023-03-06T00:23:44.332Z,22.40
2023-03-06T00:26:14.800Z,22.90
2023-03-06T00:28:45.919Z,23.13
2023-03-06T00:31:16.503Z,23.95
2023-03-06T00:33:47.103Z,24.05
2023-03-06T00:36:17.697Z,22.98
2023-03-06T00:38:50.841Z,23.60
2023-03-06T00:41:21.364Z,24.42
2023-03-06T00:43:51.937Z,26.08
2023-03-06T00:46:22.346Z,25.73
2023-03-06T00:48:52.933Z,25.25
2023-03-06T00:51:24.829Z,22.23
2023-03-06T00:53:57.888Z,24.17
2023-03-06T00:56:28.537Z,24.05
2023-03-06T00:58:59.095Z,23.88
2023-03-06T01:01:29.748Z,23.60
2023-03-06T01:04:00.134Z,25.63
2023-03-06T01:06:31.843Z,24.70
2023-03-06T01:09:05.052Z,21.30
2023-03-06T01:11:35.643Z,21.80
2023-03-06T01:14:06.297Z,22.20
2023-03-06T01:16:40.043Z,22.10
2023-03-06T01:19:10.879Z,21.23
2023-03-06T01:21:43.050Z,21.98
2023-03-06T01:24:16.237Z,19.35
2023-03-06T01:26:46.692Z,22.08
2023-03-06T01:29:18.470Z,21.00
2023-03-06T01:31:49.124Z,21.83
2023-03-06T01:34:19.752Z,21.90
2023-03-06T01:36:50.913Z,23.05
2023-03-06T01:39:24.040Z,18.92
2023-03-06T01:41:54.461Z,21.00
2023-03-06T01:44:25.824Z,19.05
2023-03-06T01:46:56.355Z,19.90
2023-03-06T01:49:29.743Z,22.02
2023-03-06T01:52:05.439Z,19.88
2023-03-06T01:54:44.680Z,22.65
2023-03-06T01:57:17.991Z,18.58
2023-03-06T01:59:53.347Z,18.85
2023-03-06T02:02:24.391Z,20.10
2023-03-06T02:04:55.011Z,18.95
2023-03-06T02:07:25.912Z,22.52
2023-03-06T02:09:59.662Z,23.77
2023-03-06T02:12:30.301Z,19.52
2023-03-06T02:15:01.030Z,20.90
2023-03-06T02:17:33.192Z,17.73
2023-03-06T02:20:10.694Z,19.60
2023-03-06T02:22:52.601Z,20.92
2023-03-06T02:25:36.608Z,21.38
2023-03-06T02:28:08.276Z,20.80
2023-03-06T02:30:39.439Z,20.17
2023-03-06T02:33:10.278Z,24.05
2023-03-06T02:35:42.391Z,18.17
2023-03-06T02:38:16.745Z,21.17
2023-03-06T02:43:28.526Z,20.55
2023-03-06T02:45:59.160Z,20.55
2023-03-06T02:48:30.101Z,23.55
2023-03-06T02:51:00.660Z,24.98
2023-03-06T02:53:31.699Z,22.33
2023-03-06T02:56:05.882Z,21.65
2023-03-06T02:58:36.786Z,20.83
2023-03-06T03:01:08.013Z,20.23
2023-03-06T03:03:39.061Z,25.25
2023-03-06T03:06:11.030Z,21.83
2023-03-06T03:08:41.819Z,27.23
2023-03-06T03:11:16.027Z,23.00
2023-03-06T03:13:48.101Z,20.08
2023-03-06T03:16:23.953Z,20.65
2023-03-06T03:18:54.659Z,19.10
2023-03-06T03:21:26.939Z,19.95
2023-03-06T03:23:59.246Z,20.70
2023-03-06T03:26:34.578Z,21.95
2023-03-06T03:29:11.117Z,21.65
2023-03-06T03:31:41.920Z,18.85
2023-03-06T03:34:12.917Z,22.92
2023-03-06T03:36:45.536Z,19.13
2023-03-06T03:39:18.269Z,23.70
2023-03-06T03:41:51.383Z,21.05
2023-03-06T03:44:23.029Z,28.23
2023-03-06T03:46:53.620Z,20.25
2023-03-06T03:49:26.323Z,27.05
2023-03-06T03:51:57.653Z,28.85
2023-03-06T03:54:30.776Z,23.50
2023-03-06T03:57:04.574Z,22.00
2023-03-06T03:59:38.688Z,21.70
2023-03-06T04:02:24.047Z,22.83
2023-03-06T04:05:02.309Z,23.65
2023-03-06T04:07:34.104Z,22.60
2023-03-06T04:10:04.592Z,23.25
2023-03-06T04:12:37.980Z,22.23
2023-03-06T04:15:10.373Z,22.63
2023-03-06T04:17:41.903Z,21.05
2023-03-06T04:20:17.968Z,18.40
2023-03-06T04:22:50.190Z,20.92
2023-03-06T04:25:21.361Z,19.73
2023-03-06T04:27:55.369Z,23.65
2023-03-06T04:30:26.034Z,20.00
2023-03-06T04:32:56.592Z,21.67
2023-03-06T04:35:27.342Z,19.60
2023-03-06T04:38:05.855Z,22.42
2023-03-06T04:40:39.183Z,22.58
2023-03-06T04:43:12.449Z,22.23
2023-03-06T04:45:43.416Z,20.65
2023-03-06T04:48:16.644Z,21.33
2023-03-06T04:50:47.430Z,23.67
2023-03-06T04:53:20.011Z,20.95
2023-03-06T04:55:50.622Z,25.40
2023-03-06T04:58:24.820Z,28.88
2023-03-06T05:00:55.414Z,26.30
2023-03-06T05:03:26.083Z,23.02
2023-03-06T05:05:56.631Z,33.65
2023-03-06T05:08:27.097Z,23.80
2023-03-06T05:10:59.408Z,24.50
2023-03-06T05:13:32.785Z,27.80
2023-03-06T05:16:05.790Z,23.17
2023-03-06T05:18:36.973Z,21.35
2023-03-06T05:21:08.352Z,23.55
2023-03-06T05:23:41.654Z,25.52
2023-03-06T05:26:14.102Z,23.10
2023-03-06T05:28:47.249Z,22.63
2023-03-06T05:31:17.783Z,23.80
2023-03-06T05:33:48.411Z,23.67
2023-03-06T05:36:18.854Z,24.13
2023-03-06T05:38:49.266Z,22.92
2023-03-06T05:41:19.906Z,23.50
2023-03-06T05:43:53.063Z,27.17
2023-03-06T05:46:23.508Z,30.05
2023-03-06T05:48:55.505Z,35.80
2023-03-06T05:51:26.831Z,27.80
2023-03-06T05:53:57.246Z,26.25
2023-03-06T05:56:27.731Z,29.45
2023-03-06T05:59:00.840Z,31.30
2023-03-06T06:01:31.545Z,24.15
2023-03-06T06:04:02.078Z,29.70
2023-03-06T06:06:32.549Z,30.83
2023-03-06T06:09:03.491Z,30.38
2023-03-06T06:11:33.975Z,31.33
2023-03-06T06:14:07.166Z,26.13
2023-03-06T06:16:37.686Z,29.02
2023-03-06T06:19:08.123Z,26.88
2023-03-06T06:21:38.561Z,27.25
2023-03-06T06:24:09.748Z,25.60
2023-03-06T06:26:40.166Z,33.80
2023-03-06T06:29:13.663Z,24.50
2023-03-06T06:31:44.658Z,26.25
2023-03-06T06:34:15.658Z,35.97
2023-03-06T06:36:46.553Z,30.27
2023-03-06T06:39:19.167Z,26.42
2023-03-06T06:42:05.550Z,23.23
2023-03-06T06:44:43.183Z,38.17
2023-03-06T06:47:23.659Z,28.55
2023-03-06T06:49:55.886Z,29.73
2023-03-06T06:52:27.789Z,22.80
2023-03-06T06:54:58.541Z,23.10
2023-03-06T06:57:29.086Z,23.35
2023-03-06T07:00:02.170Z,16.25
2023-03-06T07:02:35.901Z,17.40
2023-03-06T07:05:06.437Z,10.75
2023-03-06T07:07:38.705Z,9.25
2023-03-06T07:10:14.319Z,11.27
2023-03-06T07:12:44.811Z,9.68
2023-03-06T07:15:19.351Z,9.15
2023-03-06T07:17:50.346Z,18.57
2023-03-06T07:20:21.780Z,11.52
2023-03-06T07:22:52.661Z,10.65
2023-03-06T07:25:23.858Z,9.40
2023-03-06T07:27:56.166Z,9.25
2023-03-06T07:30:29.645Z,14.82
2023-03-06T07:33:01.302Z,12.75
2023-03-06T07:35:32.056Z,15.20
2023-03-06T07:38:02.770Z,15.60
2023-03-06T07:40:33.262Z,10.05
2023-03-06T07:43:18.299Z,11.15
2023-03-06T07:46:06.113Z,12.68
2023-03-06T07:48:37.955Z,9.38
2023-03-06T07:51:11.218Z,12.27
2023-03-06T07:53:41.814Z,9.20
2023-03-06T07:56:13.049Z,12.05
2023-03-06T07:58:45.234Z,10.25
2023-03-06T08:01:20.204Z,11.45
2023-03-06T08:03:51.845Z,8.68
2023-03-06T08:06:23.983Z,12.07
2023-03-06T08:08:55.814Z,11.02
2023-03-06T08:11:28.063Z,9.02
2023-03-06T08:13:59.822Z,9.85
2023-03-06T08:16:33.958Z,9.90
2023-03-06T08:19:04.432Z,10.55
2023-03-06T08:21:34.886Z,11.13
2023-03-06T08:24:07.473Z,9.48
2023-03-06T08:26:38.108Z,11.30
2023-03-06T08:29:08.684Z,11.10
2023-03-06T08:31:43.563Z,11.00
2023-03-06T08:34:16.264Z,10.10
2023-03-06T08:36:47.008Z,13.55
2023-03-06T08:39:18.086Z,9.80
2023-03-06T08:41:48.601Z,14.93
2023-03-06T08:44:19.087Z,10.20
2023-03-06T08:46:52.272Z,12.95
2023-03-06T08:49:23.023Z,9.55
2023-03-06T08:51:53.663Z,9.93
2023-03-06T08:54:24.267Z,8.57
2023-03-06T08:56:54.806Z,12.18
2023-03-06T08:59:25.355Z,10.90
2023-03-06T09:01:58.488Z,10.35
2023-03-06T09:04:29.300Z,11.15
2023-03-06T09:06:59.811Z,11.18
2023-03-06T09:09:30.271Z,11.93
2023-03-06T09:12:00.769Z,12.02
2023-03-06T09:14:31.436Z,10.82
2023-03-06T09:17:04.517Z,13.80
2023-03-06T09:19:35.064Z,17.65
2023-03-06T09:22:05.496Z,13.15
2023-03-06T09:24:36.412Z,16.70
2023-03-06T09:27:07.157Z,13.60
2023-03-06T09:29:37.614Z,10.32
2023-03-06T09:32:12.254Z,11.32
2023-03-06T09:34:42.889Z,13.38
2023-03-06T09:37:13.314Z,12.82
2023-03-06T09:39:43.888Z,11.45
2023-03-06T09:42:18.994Z,13.40
2023-03-06T09:44:54.943Z,13.20
2023-03-06T09:47:48.575Z,10.10
2023-03-06T09:50:42.156Z,11.40
2023-03-06T09:53:24.035Z,13.35
2023-03-06T09:56:03.917Z,14.27
2023-03-06T09:58:40.785Z,10.30
2023-03-06T10:01:20.502Z,11.02
2023-03-06T10:03:57.937Z,15.27
2023-03-06T10:06:33.221Z,11.68
2023-03-06T10:09:08.530Z,11.63
2023-03-06T10:11:44.911Z,11.32
2023-03-06T10:14:24.807Z,13.77
2023-03-06T10:16:55.262Z,13.00
2023-03-06T10:19:36.757Z,13.07
2023-03-06T10:22:16.030Z,13.50
2023-03-06T10:24:56.159Z,16.80
2023-03-06T10:27:41.778Z,12.23
2023-03-06T10:30:28.975Z,12.30
2023-03-06T10:33:01.898Z,12.23
2023-03-06T10:35:48.932Z,10.40
2023-03-06T10:38:24.112Z,10.32
2023-03-06T10:41:05.170Z,13.50
2023-03-06T10:43:36.613Z,9.98
2023-03-06T10:46:08.457Z,9.20
2023-03-06T10:48:41.997Z,9.45
2023-03-06T10:51:20.575Z,11.27
2023-03-06T10:53:57.485Z,12.13
2023-03-06T10:56:33.345Z,11.48
2023-03-06T10:59:12.231Z,11.20
2023-03-06T11:01:43.844Z,12.07
2023-03-06T11:04:30.355Z,13.07
2023-03-06T11:07:18.956Z,10.23
2023-03-06T11:10:03.799Z,11.02
2023-03-06T11:12:36.779Z,10.63
2023-03-06T11:15:24.034Z,11.70
2023-03-06T11:17:57.808Z,12.43
2023-03-06T11:20:48.601Z,10.52
2023-03-06T11:23:27.740Z,11.18
2023-03-06T11:26:01.574Z,13.40
2023-03-06T11:28:35.716Z,12.25
2023-03-06T11:31:11.777Z,15.18
2023-03-06T11:33:48.793Z,11.18
2023-03-06T11:36:26.771Z,14.88
2023-03-06T11:38:59.924Z,9.65
2023-03-06T11:41:42.109Z,15.75
2023-03-06T11:44:23.378Z,11.98
2023-03-06T11:47:01.938Z,11.10
2023-03-06T11:49:36.225Z,10.57
2023-03-06T11:52:12.114Z,8.80
2023-03-06T11:54:45.308Z,16.10
2023-03-06T11:57:20.819Z,12.38
2023-03-06T12:00:20.060Z,9.25
2023-03-06T12:03:23.206Z,10.07
2023-03-06T12:06:03.980Z,13.45
2023-03-06T12:08:54.547Z,10.30
2023-03-06T12:11:35.756Z,10.30
2023-03-06T12:14:34.612Z,11.77
2023-03-06T12:17:15.466Z,12.32
2023-03-06T12:19:59.497Z,9.90
2023-03-06T12:22:57.803Z,12.30
2023-03-06T12:25:38.251Z,15.02
2023-03-06T12:28:32.259Z,8.50
2023-03-06T12:31:27.419Z,9.55
2023-03-06T12:34:09.969Z,12.02
2023-03-06T12:36:53.675Z,14.88
2023-03-06T12:39:38.158Z,9.50
2023-03-06T12:42:33.098Z,12.67
2023-03-06T12:45:34.931Z,12.38
2023-03-06T12:48:05.596Z,9.68
2023-03-06T12:50:39.201Z,9.10
2023-03-06T12:53:15.822Z,10.60
2023-03-06T12:55:49.807Z,9.40
2023-03-06T12:58:51.820Z,10.43
2023-03-06T13:01:55.833Z,10.50
2023-03-06T13:04:37.301Z,10.18
2023-03-06T13:07:23.032Z,9.23
2023-03-06T13:10:08.028Z,12.82
2023-03-06T13:12:55.881Z,24.37
2023-03-06T13:16:07.306Z,14.02
2023-03-06T13:19:05.268Z,14.23
2023-03-06T13:22:11.139Z,13.40
2023-03-06T13:24:44.266Z,18.88
2023-03-06T13:27:35.856Z,10.73
2023-03-06T13:30:25.943Z,12.15
2023-03-06T13:32:58.103Z,9.23
2023-03-06T13:35:55.617Z,10.82
2023-03-06T13:38:37.882Z,11.70
2023-03-06T13:41:44.019Z,10.85
2023-03-06T13:44:51.207Z,10.30
2023-03-06T13:48:02.887Z,11.80
2023-03-06T13:50:39.083Z,9.57
2023-03-06T13:53:40.936Z,10.63
2023-03-06T13:56:44.321Z,10.85
2023-03-06T13:59:38.839Z,10.60
2023-03-06T14:02:28.220Z,12.77
2023-03-06T14:05:00.880Z,17.02
2023-03-06T14:07:34.794Z,13.52
2023-03-06T14:10:17.865Z,14.05
2023-03-06T14:13:04.425Z,10.73
2023-03-06T14:15:49.072Z,10.80
2023-03-06T14:18:24.012Z,14.20
2023-03-06T14:20:59.767Z,11.45
2023-03-06T14:23:34.539Z,11.90
2023-03-06T14:26:18.130Z,17.15
2023-03-06T14:28:59.459Z,12.43
2023-03-06T14:31:35.651Z,15.80
2023-03-06T14:34:08.182Z,14.50
2023-03-06T14:36:45.206Z,12.85
2023-03-06T14:39:18.023Z,11.90
2023-03-06T14:41:48.560Z,11.30
2023-03-06T14:44:22.218Z,9.88
2023-03-06T14:46:58.070Z,15.35
2023-03-06T14:49:29.578Z,11.88
2023-03-06T14:52:02.578Z,13.27
2023-03-06T14:54:37.128Z,10.75
2023-03-06T14:57:11.127Z,14.23
2023-03-06T14:59:46.851Z,12.85
2023-03-06T15:02:25.853Z,16.42
2023-03-06T15:05:01.567Z,20.60
2023-03-06T15:07:35.924Z,19.95
2023-03-06T15:10:10.728Z,17.95
2023-03-06T15:12:42.507Z,17.63
2023-03-06T15:15:32.762Z,20.98
2023-03-06T15:18:06.254Z,15.43
2023-03-06T15:20:46.547Z,11.88
2023-03-06T15:23:22.930Z,18.85
2023-03-06T15:25:56.119Z,14.43
2023-03-06T15:28:33.227Z,17.00
2023-03-06T15:31:20.147Z,15.43
2023-03-06T15:34:24.084Z,17.65
2023-03-06T15:36:59.896Z,14.45
2023-03-06T15:39:39.390Z,17.05
2023-03-06T15:42:20.962Z,20.20
2023-03-06T15:44:53.501Z,19.05
2023-03-06T15:47:24.585Z,17.88
2023-03-06T15:49:58.027Z,20.73
2023-03-06T15:52:28.644Z,20.98
2023-03-06T15:54:59.070Z,22.27
2023-03-06T15:57:32.075Z,17.67
2023-03-06T16:00:04.963Z,20.85
2023-03-06T16:02:42.170Z,17.50
2023-03-06T16:05:18.659Z,19.13
2023-03-06T16:07:49.756Z,17.58
2023-03-06T16:10:22.455Z,15.65
2023-03-06T16:12:55.745Z,18.38
2023-03-06T16:15:29.230Z,19.40
2023-03-06T16:18:00.278Z,24.63
2023-03-06T16:20:33.857Z,13.77
2023-03-06T16:23:10.503Z,21.02
2023-03-06T16:25:42.496Z,17.05
2023-03-06T16:28:15.365Z,21.10
2023-03-06T16:30:48.040Z,22.17
2023-03-06T16:33:18.594Z,19.50
2023-03-06T16:35:51.892Z,15.25
2023-03-06T16:38:22.353Z,20.55
2023-03-06T16:40:52.986Z,18.52
2023-03-06T16:43:23.492Z,16.27
2023-03-06T16:45:54.062Z,22.58
2023-03-06T16:48:24.547Z,21.83
2023-03-06T16:50:57.666Z,27.13
2023-03-06T16:53:28.260Z,23.02
2023-03-06T16:55:58.981Z,26.50
2023-03-06T16:58:29.533Z,23.15
2023-03-06T17:01:00.713Z,22.60
2023-03-06T17:03:31.440Z,21.98
2023-03-06T17:06:04.629Z,23.27
2023-03-06T17:08:35.250Z,24.80
2023-03-06T17:11:08.703Z,25.58
2023-03-06T17:13:39.239Z,24.20
2023-03-06T17:16:11.484Z,32.55
2023-03-06T17:18:42.092Z,26.90
2023-03-06T17:21:17.624Z,28.90
2023-03-06T17:26:20.402Z,27.52
2023-03-06T17:28:51.175Z,26.88
2023-03-06T17:31:24.087Z,28.17
2023-03-06T17:33:57.394Z,25.67
2023-03-06T17:36:31.118Z,56.40
2023-03-06T17:39:04.155Z,53.47
2023-03-06T17:41:34.625Z,62.65
2023-03-06T17:44:05.149Z,66.80
2023-03-06T17:46:36.086Z,58.88
2023-03-06T17:49:07.355Z,54.30
2023-03-06T17:51:40.522Z,57.40
2023-03-06T17:54:11.272Z,53.22
2023-03-06T17:56:42.114Z,45.90
2023-03-06T17:59:12.791Z,54.60
2023-03-06T18:01:45.282Z,53.60
2023-03-06T18:04:17.124Z,54.08
2023-03-06T18:06:50.477Z,46.97
2023-03-06T18:09:21.120Z,47.83
2023-03-06T18:11:52.194Z,55.05
2023-03-06T18:14:23.012Z,50.45
2023-03-06T18:16:53.783Z,56.13
2023-03-06T18:19:24.432Z,40.90
2023-03-06T18:21:57.821Z,38.53
2023-03-06T18:24:28.447Z,43.38
2023-03-06T18:26:59.159Z,56.97
2023-03-06T18:29:29.738Z,67.40
2023-03-06T18:32:00.375Z,67.18
2023-03-06T18:34:31.224Z,62.03
2023-03-06T18:37:04.715Z,68.75
2023-03-06T18:39:36.042Z,65.95
2023-03-06T18:42:07.456Z,64.55
2023-03-06T18:44:38.976Z,61.15
2023-03-06T18:47:09.889Z,57.45
2023-03-06T18:49:44.074Z,51.17
2023-03-06T18:52:17.637Z,48.50
2023-03-06T18:54:49.150Z,50.55
2023-03-06T18:57:19.965Z,48.90
2023-03-06T18:59:51.322Z,43.33
2023-03-06T19:02:23.671Z,48.25
2023-03-06T19:04:58.328Z,46.38
2023-03-06T19:07:32.411Z,48.20
2023-03-06T19:10:06.997Z,39.72
2023-03-06T19:12:38.479Z,36.38
2023-03-06T19:15:11.872Z,40.38
2023-03-06T19:17:43.254Z,40.63
2023-03-06T19:20:17.340Z,39.75
2023-03-06T19:22:53.227Z,41.28
2023-03-06T19:25:27.596Z,39.58
2023-03-06T19:27:59.499Z,42.35
2023-03-06T19:30:30.791Z,35.10
2023-03-06T19:33:02.220Z,32.55
2023-03-06T19:35:33.824Z,30.42
2023-03-06T19:38:09.528Z,36.13
2023-03-06T19:40:40.417Z,35.63
2023-03-06T19:43:11.187Z,34.70
2023-03-06T19:45:46.026Z,32.33
2023-03-06T19:48:17.988Z,37.55
2023-03-06T19:50:48.777Z,31.98
2023-03-06T19:53:21.954Z,35.50
2023-03-06T19:55:52.503Z,34.08
2023-03-06T19:58:23.022Z,35.10
2023-03-06T20:00:54.010Z,35.53
2023-03-06T20:03:28.332Z,36.88
2023-03-06T20:05:59.024Z,32.63
2023-03-06T20:08:32.313Z,31.15
2023-03-06T20:11:02.856Z,31.27
2023-03-06T20:13:34.362Z,38.78
2023-03-06T20:16:06.807Z,41.20
2023-03-06T20:18:37.588Z,40.47
2023-03-06T20:21:09.446Z,33.95
2023-03-06T20:23:42.789Z,36.47
2023-03-06T20:26:15.461Z,34.45
2023-03-06T20:28:46.604Z,33.13
2023-03-06T20:31:19.913Z,34.67
2023-03-06T20:33:53.113Z,33.15
2023-03-06T20:36:25.454Z,34.15
2023-03-06T20:38:59.165Z,36.53
2023-03-06T20:41:31.818Z,36.13
2023-03-06T20:44:03.478Z,30.48
2023-03-06T20:46:34.721Z,31.73
2023-03-06T20:49:05.193Z,30.42
2023-03-06T20:51:39.313Z,34.35
2023-03-06T20:54:15.839Z,29.80
2023-03-06T20:56:49.611Z,28.77
2023-03-06T20:59:20.294Z,29.65
2023-03-06T21:01:51.198Z,30.98
2023-03-06T21:04:21.737Z,27.83
2023-03-06T21:06:52.289Z,23.85
2023-03-06T21:09:25.471Z,27.70
2023-03-06T21:11:55.889Z,30.35
2023-03-06T21:14:26.437Z,25.95
2023-03-06T21:16:57.071Z,26.38
2023-03-06T21:19:27.556Z,26.65
2023-03-06T21:21:58.220Z,30.35
2023-03-06T21:24:31.577Z,26.15
2023-03-06T21:27:02.011Z,30.00
2023-03-06T21:29:32.839Z,27.05
2023-03-06T21:32:03.413Z,28.70
2023-03-06T21:34:33.897Z,27.13
2023-03-06T21:37:04.523Z,26.42
2023-03-06T21:39:38.748Z,26.27
2023-03-06T21:42:09.718Z,24.38
2023-03-06T21:44:40.263Z,24.38
2023-03-06T21:47:10.731Z,23.38
2023-03-06T21:49:41.527Z,26.70
2023-03-06T21:52:12.153Z,30.70
2023-03-06T21:54:45.267Z,28.13
2023-03-06T21:57:15.871Z,32.38
2023-03-06T21:59:46.297Z,37.15
2023-03-06T22:02:17.699Z,37.72
2023-03-06T22:04:52.733Z,36.35
2023-03-06T22:07:23.226Z,37.92
2023-03-06T22:09:58.415Z,35.15
2023-03-06T22:12:28.922Z,30.67
2023-03-06T22:14:59.545Z,32.35
2023-03-06T22:17:29.996Z,30.20
2023-03-06T22:20:00.570Z,37.58
2023-03-06T22:22:31.074Z,40.15
2023-03-06T22:25:05.140Z,40.17
2023-03-06T22:27:35.664Z,37.67
2023-03-06T22:30:06.324Z,49.42
2023-03-06T22:32:36.959Z,47.38
2023-03-06T22:35:08.376Z,47.65
2023-03-06T22:37:38.840Z,46.53
2023-03-06T22:40:13.756Z,49.00
2023-03-06T22:42:44.187Z,49.58
2023-03-06T22:45:15.266Z,50.63
2023-03-06T22:47:45.786Z,49.97
2023-03-06T22:50:16.398Z,50.65
2023-03-06T22:52:47.123Z,45.63
2023-03-06T22:55:20.448Z,38.83
2023-03-06T22:57:51.069Z,36.65
2023-03-06T23:00:22.585Z,40.10
2023-03-06T23:02:53.332Z,47.83
2023-03-06T23:05:24.840Z,39.22
2023-03-06T23:07:55.424Z,43.47
2023-03-06T23:10:28.704Z,40.78
2023-03-06T23:13:17.808Z,34.85
2023-03-06T23:16:08.315Z,31.00
2023-03-06T23:18:57.515Z,34.15
2023-03-06T23:21:46.751Z,33.67
2023-03-06T23:24:37.170Z,37.13
2023-03-06T23:27:10.692Z,38.65
2023-03-06T23:29:41.517Z,36.40
2023-03-06T23:32:12.691Z,34.08
2023-03-06T23:34:43.836Z,34.45
2023-03-06T23:37:14.898Z,30.25
2023-03-06T23:39:46.367Z,30.52
2023-03-06T23:42:20.292Z,30.05
2023-03-06T23:44:51.750Z,29.10
2023-03-06T23:47:22.249Z,27.65
2023-03-06T23:49:52.740Z,29.70
2023-03-06T23:52:23.487Z,28.10
2023-03-06T23:54:54.338Z,32.17
2023-03-06T23:57:27.614Z,27.25
2023-03-06T23:59:58.145Z,29.52
